CheckWX is a tool to help pilots better visualize weather data.  It is not intended as a substitute for an official pre-flight weather briefing.

11:59:41 UTC

EHEH TAF
Eindhoven Airport
Eindhoven, The Netherlands
TAF EHEH 260506Z 2606/2712 16005KT 3000 BR BKN002 BECMG 2606/2608 8000 NSW BKN080 BECMG 2619/2622 20012KT OVC015 TEMPO 2700/2710 4000 -RA BKN010 OVC015

Jan-26@
06:00 UTC

Jan-26 @ 06:00 UTC

Jan-27@
12:00 UTC

Jan-27 @ 12:00 UTC

TAF EHEH 260506Z 2606/2712 16005KT 3000 BR BKN002
Wind
  • 160° at 5 KTS
Conditions
Mist
Cloud Levels
  • Broken at 200' AGL

Jan-26@
06:00 UTC

Jan-26 @ 06:00 UTC

Jan-26@
19:00 UTC

Jan-26 @ 19:00 UTC

BECMG 2606/2608 8000 NSW BKN080

Becoming

Becoming Conditions expected by Sun, Jan 26, 2020 @ 08:00 UTC

Wind
  • 160° at 5 KTS
Conditions
No significant weather
Cloud Levels
  • Broken at 8,000' AGL

Jan-26@
19:00 UTC

Jan-26 @ 19:00 UTC

Jan-27@
12:00 UTC

Jan-27 @ 12:00 UTC

BECMG 2619/2622 20012KT OVC015

Becoming

Becoming Conditions expected by Sun, Jan 26, 2020 @ 22:00 UTC

Wind
  • 200° at 12 KTS
Conditions
No significant weather
Cloud Levels
  • Overcast at 1,500' AGL

Jan-27@
00:00 UTC

Jan-27 @ 00:00 UTC

Jan-27@
10:00 UTC

Jan-27 @ 10:00 UTC

TEMPO 2700/2710 4000 -RA BKN010 OVC015

Temporary

Temporary Changes expected for less than half the time period

Conditions
Light Rain
Cloud Levels
  • Broken at 1,000' AGL
  • Overcast at 1,500' AGL